createdAt,value
2023-05-12T00:02:23.173Z,94.37
2023-05-12T00:04:53.168Z,94.05
2023-05-12T00:07:22.639Z,93.70
2023-05-12T00:09:51.486Z,94.39
2023-05-12T00:12:20.007Z,94.51
2023-05-12T00:14:49.215Z,93.83
2023-05-12T00:17:17.613Z,94.36
2023-05-12T00:19:46.935Z,94.33
2023-05-12T00:22:17.902Z,94.07
2023-05-12T00:24:46.273Z,94.60
2023-05-12T00:27:14.756Z,94.01
2023-05-12T00:29:43.211Z,94.23
2023-05-12T00:32:11.668Z,94.13
2023-05-12T00:34:40.009Z,94.01
2023-05-12T00:37:08.616Z,94.21
2023-05-12T00:39:39.040Z,94.83
2023-05-12T00:42:08.101Z,94.67
2023-05-12T00:44:36.768Z,94.16
2023-05-12T00:47:06.348Z,94.49
2023-05-12T00:49:34.698Z,94.31
2023-05-12T00:52:04.852Z,94.17
2023-05-12T00:54:33.566Z,94.13
2023-05-12T00:57:03.593Z,94.90
2023-05-12T00:59:32.115Z,94.68
2023-05-12T01:02:00.727Z,95.11
2023-05-12T01:04:29.835Z,95.14
2023-05-12T01:07:05.381Z,95.01
2023-05-12T01:09:33.747Z,94.50
2023-05-12T01:12:03.544Z,94.74
2023-05-12T01:14:31.981Z,94.40
2023-05-12T01:17:03.841Z,94.48
2023-05-12T01:19:42.329Z,94.55
2023-05-12T01:22:15.215Z,94.43
2023-05-12T01:24:49.754Z,95.09
2023-05-12T01:27:21.967Z,94.53
2023-05-12T01:29:51.189Z,95.07
2023-05-12T01:32:20.396Z,94.33
2023-05-12T01:34:49.752Z,94.76
2023-05-12T01:37:18.232Z,95.16
2023-05-12T01:39:46.724Z,95.08
2023-05-12T01:42:15.851Z,94.58
2023-05-12T01:44:45.767Z,94.59
2023-05-12T01:47:15.927Z,94.51
2023-05-12T01:49:44.495Z,94.61
2023-05-12T01:52:13.094Z,95.33
2023-05-12T01:54:41.879Z,94.70
2023-05-12T01:57:11.378Z,94.52
2023-05-12T01:59:39.729Z,94.82
2023-05-12T02:02:10.503Z,94.61
2023-05-12T02:04:38.881Z,94.38
2023-05-12T02:07:07.988Z,94.61
2023-05-12T02:09:36.288Z,95.17
2023-05-12T02:12:07.476Z,94.88
2023-05-12T02:14:35.927Z,95.06
2023-05-12T02:17:04.799Z,94.99
2023-05-12T02:19:34.530Z,95.15
2023-05-12T02:22:03.075Z,94.65
2023-05-12T02:24:31.832Z,94.67
2023-05-12T02:27:01.017Z,94.78
2023-05-12T02:29:29.738Z,94.50
2023-05-12T02:32:00.119Z,95.28
2023-05-12T02:34:28.626Z,94.75
2023-05-12T02:36:58.388Z,94.64
2023-05-12T02:39:27.376Z,94.56
2023-05-12T02:41:56.078Z,94.95
2023-05-12T02:44:25.003Z,95.05
2023-05-12T02:46:53.694Z,94.52
2023-05-12T02:49:22.501Z,94.94
2023-05-12T02:51:51.006Z,94.77
2023-05-12T02:54:21.029Z,94.58
2023-05-12T02:56:51.365Z,94.57
2023-05-12T02:59:19.975Z,94.73
2023-05-12T03:01:48.311Z,94.53
2023-05-12T03:04:18.126Z,94.29
2023-05-12T03:06:46.860Z,93.94
2023-05-12T03:09:15.915Z,93.88
2023-05-12T03:11:45.843Z,93.85
2023-05-12T03:14:14.164Z,94.06
2023-05-12T03:16:42.637Z,94.02
2023-05-12T03:19:11.708Z,94.31
2023-05-12T03:21:40.438Z,93.52
2023-05-12T03:24:10.120Z,93.97
2023-05-12T03:26:38.618Z,93.79
2023-05-12T03:29:09.705Z,93.56
2023-05-12T03:31:39.058Z,93.67
2023-05-12T03:34:07.588Z,93.64
2023-05-12T03:36:37.175Z,93.67
2023-05-12T03:39:05.818Z,93.52
2023-05-12T03:41:34.272Z,93.37
2023-05-12T03:44:03.046Z,93.34
2023-05-12T03:46:33.133Z,94.02
2023-05-12T03:49:01.868Z,93.62
2023-05-12T03:51:30.633Z,93.74
2023-05-12T03:53:59.209Z,93.26
2023-05-12T03:56:28.533Z,93.48
2023-05-12T03:58:58.313Z,93.26
2023-05-12T04:01:27.196Z,93.50
2023-05-12T04:03:57.296Z,92.73
2023-05-12T04:06:26.160Z,92.59
2023-05-12T04:08:54.643Z,93.46
2023-05-12T04:11:23.638Z,93.09
2023-05-12T04:13:52.346Z,92.84
2023-05-12T04:16:21.060Z,92.72
2023-05-12T04:18:50.473Z,93.37
2023-05-12T04:21:20.948Z,92.74
2023-05-12T04:23:53.837Z,92.74
2023-05-12T04:26:23.208Z,92.61
2023-05-12T04:28:53.283Z,92.43
2023-05-12T04:31:22.177Z,92.07
2023-05-12T04:33:51.993Z,92.75
2023-05-12T04:36:22.883Z,92.48
2023-05-12T04:38:51.621Z,92.36
2023-05-12T04:41:19.981Z,92.49
2023-05-12T04:46:20.848Z,91.93
2023-05-12T04:48:49.489Z,92.02
2023-05-12T04:51:17.913Z,92.49
2023-05-12T04:53:47.695Z,92.02
2023-05-12T04:56:16.004Z,91.80
2023-05-12T04:58:44.488Z,92.06
2023-05-12T05:01:13.734Z,91.68
2023-05-12T05:03:42.351Z,91.92
2023-05-12T05:06:10.731Z,91.94
2023-05-12T05:08:39.003Z,91.60
2023-05-12T05:11:08.771Z,91.99
2023-05-12T05:13:37.480Z,91.55
2023-05-12T05:16:06.890Z,91.91
2023-05-12T05:18:35.370Z,91.67
2023-05-12T05:21:03.825Z,91.37
2023-05-12T05:23:32.158Z,91.93
2023-05-12T05:26:00.467Z,91.17
2023-05-12T05:28:30.979Z,91.37
2023-05-12T05:30:59.409Z,91.41
2023-05-12T05:33:28.190Z,90.82
2023-05-12T05:35:57.338Z,91.31
2023-05-12T05:38:26.182Z,91.26
2023-05-12T05:40:54.928Z,90.58
2023-05-12T05:43:23.564Z,91.07
2023-05-12T05:45:53.373Z,90.78
2023-05-12T05:48:22.367Z,90.67
2023-05-12T05:50:51.901Z,90.57
2023-05-12T05:53:21.102Z,90.52
2023-05-12T05:55:49.854Z,90.34
2023-05-12T05:58:18.537Z,89.93
2023-05-12T06:00:47.370Z,89.82
2023-05-12T06:03:17.322Z,90.16
2023-05-12T06:05:45.861Z,90.03
2023-05-12T06:08:14.243Z,89.90
2023-05-12T06:10:42.797Z,89.64
2023-05-12T06:13:11.308Z,89.41
2023-05-12T06:15:39.887Z,89.40
2023-05-12T06:18:08.971Z,89.65
2023-05-12T06:20:38.907Z,89.52
2023-05-12T06:23:07.399Z,89.55
2023-05-12T06:25:35.725Z,89.28
2023-05-12T06:28:04.146Z,89.15
2023-05-12T06:30:33.849Z,89.54
2023-05-12T06:33:02.739Z,89.02
2023-05-12T06:35:31.222Z,88.97
2023-05-12T06:38:00.986Z,88.98
2023-05-12T06:40:29.534Z,89.06
2023-05-12T06:42:58.202Z,89.24
2023-05-12T06:45:28.151Z,88.99
2023-05-12T06:47:57.714Z,89.00
2023-05-12T06:50:26.293Z,88.63
2023-05-12T06:52:54.835Z,88.81
2023-05-12T06:55:24.881Z,88.85
2023-05-12T06:57:56.145Z,88.84
2023-05-12T07:00:24.992Z,88.80
2023-05-12T07:02:53.752Z,88.79
2023-05-12T07:05:22.987Z,88.76
2023-05-12T07:07:52.203Z,88.89
2023-05-12T07:10:22.060Z,88.83
2023-05-12T07:12:52.094Z,88.74
2023-05-12T07:15:21.228Z,88.75
2023-05-12T07:17:49.983Z,88.45
2023-05-12T07:20:18.652Z,88.22
2023-05-12T07:22:47.152Z,88.17
2023-05-12T07:25:16.068Z,87.79
2023-05-12T07:27:44.631Z,87.61
2023-05-12T07:30:15.141Z,87.27
2023-05-12T07:32:44.097Z,87.23
2023-05-12T07:35:12.623Z,86.90
2023-05-12T07:37:42.152Z,86.33
2023-05-12T07:40:11.034Z,86.09
2023-05-12T07:42:40.000Z,85.69
2023-05-12T07:45:10.486Z,85.26
2023-05-12T07:47:41.052Z,85.23
2023-05-12T07:50:11.307Z,84.33
2023-05-12T07:52:49.090Z,83.86
2023-05-12T07:55:18.764Z,84.28
2023-05-12T07:57:47.387Z,83.91
2023-05-12T08:00:16.881Z,83.23
2023-05-12T08:02:47.313Z,82.86
2023-05-12T08:05:16.528Z,82.67
2023-05-12T08:07:45.231Z,82.37
2023-05-12T08:10:14.805Z,81.56
2023-05-12T08:12:43.997Z,81.34
2023-05-12T08:15:12.501Z,80.65
2023-05-12T08:17:40.859Z,80.66
2023-05-12T08:20:12.564Z,79.93
2023-05-12T08:22:41.225Z,79.72
2023-05-12T08:25:12.386Z,79.27
2023-05-12T08:27:41.299Z,79.08
2023-05-12T08:30:11.049Z,77.68
2023-05-12T08:32:39.558Z,76.95
2023-05-12T08:35:08.622Z,76.98
2023-05-12T08:37:38.428Z,76.01
2023-05-12T08:40:16.829Z,75.86
2023-05-12T08:42:50.967Z,75.30
2023-05-12T08:45:20.703Z,75.04
2023-05-12T08:47:49.269Z,74.78
2023-05-12T08:50:20.180Z,74.26
2023-05-12T08:52:53.014Z,73.97
2023-05-12T08:55:27.402Z,73.59
2023-05-12T08:57:59.643Z,73.43
2023-05-12T09:00:31.211Z,73.39
2023-05-12T09:03:02.408Z,73.20
2023-05-12T09:05:31.934Z,72.77
2023-05-12T09:08:02.404Z,72.76
2023-05-12T09:10:34.993Z,72.45
2023-05-12T09:13:07.538Z,71.87
2023-05-12T09:15:40.223Z,72.08
2023-05-12T09:18:08.679Z,72.25
2023-05-12T09:20:37.288Z,71.65
2023-05-12T09:23:17.162Z,70.91
2023-05-12T09:25:47.136Z,69.96
2023-05-12T09:28:16.740Z,69.31
2023-05-12T09:30:44.993Z,68.92
2023-05-12T09:33:14.846Z,68.46
2023-05-12T09:35:44.776Z,68.25
2023-05-12T09:38:17.597Z,68.30
2023-05-12T09:40:47.261Z,68.26
2023-05-12T09:43:17.558Z,67.29
2023-05-12T09:45:47.721Z,67.81
2023-05-12T09:48:16.406Z,65.32
2023-05-12T09:50:48.212Z,66.01
2023-05-12T09:53:20.652Z,65.97
2023-05-12T09:55:50.590Z,65.36
2023-05-12T09:58:21.793Z,64.82
2023-05-12T10:01:17.917Z,65.50
2023-05-12T10:03:42.259Z,65.18
2023-05-12T10:06:16.204Z,65.13
2023-05-12T10:08:50.457Z,65.38
2023-05-12T10:11:19.585Z,65.29
2023-05-12T10:13:48.499Z,65.28
2023-05-12T10:16:17.800Z,65.08
2023-05-12T10:18:46.757Z,66.15
2023-05-12T10:21:17.476Z,65.70
2023-05-12T10:23:48.277Z,64.93
2023-05-12T10:26:17.949Z,64.96
2023-05-12T10:28:47.340Z,63.78
2023-05-12T10:31:16.330Z,63.67
2023-05-12T10:33:44.721Z,63.18
2023-05-12T10:36:20.460Z,63.50
2023-05-12T10:38:51.249Z,63.46
2023-05-12T10:41:31.780Z,63.13
2023-05-12T10:44:00.664Z,62.68
2023-05-12T10:46:30.568Z,60.90
2023-05-12T10:49:03.474Z,59.29
2023-05-12T10:51:34.159Z,59.05
2023-05-12T10:54:06.503Z,58.40
2023-05-12T10:56:44.863Z,57.98
2023-05-12T10:59:24.782Z,58.42
2023-05-12T11:02:03.930Z,57.96
2023-05-12T11:04:43.420Z,55.02
2023-05-12T11:07:14.325Z,53.85
2023-05-12T11:09:57.635Z,54.21
2023-05-12T11:12:37.134Z,52.66
2023-05-12T11:15:08.217Z,51.70
2023-05-12T11:17:41.162Z,50.53
2023-05-12T11:20:11.076Z,48.31
2023-05-12T11:22:44.856Z,50.02
2023-05-12T11:25:16.063Z,50.16
2023-05-12T11:27:51.101Z,49.83
2023-05-12T11:30:20.034Z,49.83
2023-05-12T11:32:48.733Z,50.54
2023-05-12T11:35:20.545Z,50.22
2023-05-12T11:37:49.179Z,50.36
2023-05-12T11:40:22.485Z,49.06
2023-05-12T11:42:54.766Z,48.31
2023-05-12T11:45:29.291Z,46.69
2023-05-12T11:48:08.948Z,45.96
2023-05-12T11:50:40.746Z,45.59
2023-05-12T11:53:14.945Z,43.12
2023-05-12T11:55:52.207Z,43.61
2023-05-12T11:58:22.920Z,43.71
2023-05-12T12:00:51.675Z,42.28
2023-05-12T12:03:20.787Z,41.50
2023-05-12T12:06:01.092Z,40.96
2023-05-12T12:08:29.670Z,40.26
2023-05-12T12:11:01.966Z,40.60
2023-05-12T12:13:31.839Z,39.06
2023-05-12T12:16:00.255Z,38.32
2023-05-12T12:18:28.791Z,37.47
2023-05-12T12:20:57.690Z,37.42
2023-05-12T12:23:26.255Z,36.54
2023-05-12T12:25:57.781Z,36.13
2023-05-12T12:28:27.778Z,35.71
2023-05-12T12:30:56.291Z,35.63
2023-05-12T12:33:24.668Z,34.89
2023-05-12T12:35:53.818Z,35.60
2023-05-12T12:38:23.734Z,34.75
2023-05-12T12:40:52.728Z,33.46
2023-05-12T12:43:22.073Z,33.61
2023-05-12T12:45:55.055Z,31.76
2023-05-12T12:48:23.758Z,31.00
2023-05-12T12:50:53.790Z,30.08
2023-05-12T12:53:22.788Z,30.50
2023-05-12T12:55:51.564Z,28.10
2023-05-12T12:58:21.703Z,27.39
2023-05-12T13:00:53.600Z,27.14
2023-05-12T13:03:23.327Z,27.64
2023-05-12T13:05:54.486Z,26.03
2023-05-12T13:08:24.570Z,25.08
2023-05-12T13:10:53.417Z,25.10
2023-05-12T13:13:24.572Z,25.70
2023-05-12T13:15:55.303Z,25.44
2023-05-12T13:18:23.868Z,25.34
2023-05-12T13:20:52.822Z,25.56
2023-05-12T13:23:21.769Z,27.27
2023-05-12T13:25:50.496Z,29.16
2023-05-12T13:28:19.198Z,29.36
2023-05-12T13:30:47.918Z,29.51
2023-05-12T13:33:17.744Z,29.19
2023-05-12T13:35:46.672Z,27.81
2023-05-12T13:38:15.304Z,29.28
2023-05-12T13:40:43.689Z,29.08
2023-05-12T13:43:12.325Z,29.30
2023-05-12T13:45:40.671Z,29.92
2023-05-12T13:48:09.413Z,31.43
2023-05-12T13:50:39.227Z,30.21
2023-05-12T13:53:07.843Z,29.25
2023-05-12T13:55:40.855Z,27.78
2023-05-12T13:58:09.951Z,26.04
2023-05-12T14:00:38.863Z,26.14
2023-05-12T14:03:08.086Z,24.24
2023-05-12T14:05:37.973Z,25.37
2023-05-12T14:08:06.730Z,26.54
2023-05-12T14:10:36.112Z,27.12
2023-05-12T14:13:05.727Z,27.91
2023-05-12T14:15:48.080Z,28.47
2023-05-12T14:18:17.787Z,29.86
2023-05-12T14:20:48.032Z,31.25
2023-05-12T14:23:17.291Z,31.36
2023-05-12T14:25:46.181Z,31.94
2023-05-12T14:28:14.731Z,32.07
2023-05-12T14:30:45.286Z,32.94
2023-05-12T14:33:14.124Z,33.23
2023-05-12T14:35:44.771Z,31.85
2023-05-12T14:38:17.919Z,30.74
2023-05-12T14:40:49.229Z,29.86
2023-05-12T14:43:17.863Z,27.00
2023-05-12T14:45:54.285Z,26.11
2023-05-12T14:48:27.337Z,25.44
2023-05-12T14:50:56.470Z,24.42
2023-05-12T14:53:26.687Z,24.09
2023-05-12T14:55:55.382Z,22.50
2023-05-12T14:58:24.600Z,21.12
2023-05-12T15:00:53.829Z,21.20
2023-05-12T15:03:23.090Z,20.94
2023-05-12T15:08:23.107Z,21.40
2023-05-12T15:10:53.266Z,21.63
2023-05-12T15:13:22.817Z,22.63
2023-05-12T15:15:55.185Z,24.25
2023-05-12T15:18:25.542Z,26.31
2023-05-12T15:20:59.428Z,27.56
2023-05-12T15:23:28.030Z,28.88
2023-05-12T15:25:59.361Z,27.46
2023-05-12T15:28:28.614Z,25.28
2023-05-12T15:30:57.847Z,24.35
2023-05-12T15:33:26.798Z,23.14
2023-05-12T15:35:55.294Z,23.12
2023-05-12T15:38:23.752Z,22.80
2023-05-12T15:40:52.998Z,22.45
2023-05-12T15:43:23.272Z,20.16
2023-05-12T15:45:51.822Z,19.93
2023-05-12T15:48:20.304Z,19.39
2023-05-12T15:50:49.181Z,19.54
2023-05-12T15:53:17.485Z,19.57
2023-05-12T15:55:45.871Z,19.95
2023-05-12T15:58:15.253Z,19.73
2023-05-12T16:00:45.373Z,20.18
2023-05-12T16:03:13.810Z,19.24
2023-05-12T16:05:42.640Z,18.18
2023-05-12T16:08:11.206Z,18.67
2023-05-12T16:10:39.564Z,18.25
2023-05-12T16:13:08.018Z,18.74
2023-05-12T16:15:36.890Z,19.06
2023-05-12T16:18:10.892Z,20.06
2023-05-12T16:20:41.738Z,19.60
2023-05-12T16:23:10.657Z,20.43
2023-05-12T16:25:39.178Z,20.57
2023-05-12T16:28:07.636Z,20.07
2023-05-12T16:30:35.998Z,21.14
2023-05-12T16:33:04.381Z,21.54
2023-05-12T16:35:34.523Z,21.46
2023-05-12T16:38:03.361Z,21.55
2023-05-12T16:40:32.622Z,20.95
2023-05-12T16:43:01.192Z,21.30
2023-05-12T16:45:29.506Z,23.45
2023-05-12T16:47:58.319Z,24.23
2023-05-12T16:50:27.016Z,25.22
2023-05-12T16:52:56.783Z,24.41
2023-05-12T16:55:26.940Z,23.70
2023-05-12T16:57:55.482Z,22.98
2023-05-12T17:00:45.698Z,23.80
2023-05-12T17:03:14.351Z,23.77
2023-05-12T17:05:44.991Z,23.85
2023-05-12T17:08:15.765Z,23.38
2023-05-12T17:10:46.299Z,23.60
2023-05-12T17:13:17.544Z,23.33
2023-05-12T17:15:46.987Z,23.73
2023-05-12T17:18:15.999Z,24.06
2023-05-12T17:20:44.414Z,23.80
2023-05-12T17:23:14.452Z,23.52
2023-05-12T17:25:43.450Z,23.25
2023-05-12T17:28:12.328Z,23.57
2023-05-12T17:30:45.023Z,23.96
2023-05-12T17:33:15.511Z,24.50
2023-05-12T17:35:53.597Z,24.58
2023-05-12T17:38:34.418Z,24.69
2023-05-12T17:41:05.091Z,24.93
2023-05-12T17:43:33.544Z,25.14
2023-05-12T17:46:02.473Z,24.30
2023-05-12T17:48:33.239Z,24.85
2023-05-12T17:51:03.490Z,25.08
2023-05-12T17:53:34.077Z,24.29
2023-05-12T17:56:03.094Z,24.47
2023-05-12T17:58:31.720Z,24.25
2023-05-12T18:01:00.767Z,24.43
2023-05-12T18:03:29.266Z,24.53
2023-05-12T18:05:58.063Z,24.66
2023-05-12T18:08:27.237Z,24.48
2023-05-12T18:10:57.757Z,24.94
2023-05-12T18:13:26.339Z,25.01
2023-05-12T18:15:57.001Z,25.41
2023-05-12T18:18:26.382Z,25.28
2023-05-12T18:20:54.987Z,25.76
2023-05-12T18:23:23.747Z,25.67
2023-05-12T18:25:52.874Z,25.95
2023-05-12T18:28:25.856Z,26.32
2023-05-12T18:30:56.250Z,27.01
2023-05-12T18:33:29.514Z,27.37
2023-05-12T18:36:01.047Z,28.57
2023-05-12T18:38:32.536Z,29.68
2023-05-12T18:41:01.144Z,30.36
2023-05-12T18:43:44.236Z,31.42
2023-05-12T18:46:13.800Z,32.05
2023-05-12T18:48:43.581Z,33.54
2023-05-12T18:51:12.429Z,34.58
2023-05-12T18:53:43.821Z,35.48
2023-05-12T18:56:14.356Z,36.74
2023-05-12T18:58:44.477Z,37.47
2023-05-12T19:01:12.914Z,38.39
2023-05-12T19:03:44.574Z,39.45
2023-05-12T19:06:14.985Z,39.62
2023-05-12T19:08:44.583Z,40.24
2023-05-12T19:11:12.939Z,40.69
2023-05-12T19:13:45.561Z,41.30
2023-05-12T19:16:15.472Z,41.96
2023-05-12T19:18:44.332Z,41.82
2023-05-12T19:21:13.482Z,42.61
2023-05-12T19:23:43.987Z,42.91
2023-05-12T19:26:13.056Z,43.25
2023-05-12T19:28:44.026Z,43.54
2023-05-12T19:31:15.246Z,43.77
2023-05-12T19:33:43.919Z,43.73
2023-05-12T19:36:12.808Z,43.96
2023-05-12T19:38:43.694Z,44.42
2023-05-12T19:41:12.541Z,44.52
2023-05-12T19:43:41.426Z,44.88
2023-05-12T19:46:12.421Z,44.75
2023-05-12T19:48:42.325Z,45.14
2023-05-12T19:51:11.378Z,45.48
2023-05-12T19:53:40.409Z,45.74
2023-05-12T19:56:09.590Z,45.81
2023-05-12T19:58:38.391Z,46.09
2023-05-12T20:01:08.598Z,46.35
2023-05-12T20:03:37.201Z,47.20
2023-05-12T20:06:07.940Z,47.09
2023-05-12T20:08:36.375Z,47.42
2023-05-12T20:11:04.904Z,47.27
2023-05-12T20:13:33.539Z,48.03
2023-05-12T20:16:02.054Z,48.47
2023-05-12T20:18:31.438Z,48.72
2023-05-12T20:21:00.140Z,48.75
2023-05-12T20:23:31.667Z,48.92
2023-05-12T20:26:01.480Z,48.85
2023-05-12T20:28:30.390Z,49.14
2023-05-12T20:30:59.249Z,49.54
2023-05-12T20:33:28.767Z,49.33
2023-05-12T20:35:57.652Z,50.19
2023-05-12T20:38:27.158Z,51.05
2023-05-12T20:40:57.079Z,51.27
2023-05-12T20:43:26.662Z,51.21
2023-05-12T20:45:55.603Z,51.81
2023-05-12T20:48:24.215Z,52.07
2023-05-12T20:50:54.239Z,51.94
2023-05-12T20:53:27.054Z,52.63
2023-05-12T20:55:57.844Z,52.54
2023-05-12T20:58:26.802Z,52.70
2023-05-12T21:00:55.483Z,52.54
2023-05-12T21:03:24.626Z,53.24
2023-05-12T21:05:53.394Z,53.19
2023-05-12T21:08:21.738Z,53.28
2023-05-12T21:10:50.330Z,53.49
2023-05-12T21:13:20.819Z,54.12
2023-05-12T21:15:49.189Z,53.88
2023-05-12T21:18:17.720Z,53.90
2023-05-12T21:20:47.198Z,53.46
2023-05-12T21:23:15.545Z,54.12
2023-05-12T21:25:44.246Z,54.35
2023-05-12T21:28:12.993Z,55.30
2023-05-12T21:30:42.705Z,54.38
2023-05-12T21:33:11.166Z,54.94
2023-05-12T21:35:39.649Z,54.95
2023-05-12T21:38:10.217Z,54.80
2023-05-12T21:40:39.144Z,55.70
2023-05-12T21:43:07.561Z,55.77
2023-05-12T21:45:36.023Z,55.82
2023-05-12T21:48:06.526Z,56.75
2023-05-12T21:50:34.951Z,56.76
2023-05-12T21:53:03.312Z,57.03
2023-05-12T21:55:31.658Z,57.25
2023-05-12T21:58:00.274Z,56.79
2023-05-12T22:00:32.746Z,57.70
2023-05-12T22:03:01.176Z,57.74
2023-05-12T22:05:31.955Z,58.27
2023-05-12T22:08:00.752Z,57.85
2023-05-12T22:10:30.485Z,58.44
2023-05-12T22:12:58.927Z,58.49
2023-05-12T22:15:27.748Z,59.13
2023-05-12T22:17:56.961Z,58.84
2023-05-12T22:20:26.880Z,58.64
2023-05-12T22:22:57.800Z,58.85
2023-05-12T22:25:27.100Z,59.18
2023-05-12T22:27:55.944Z,59.33
2023-05-12T22:30:25.103Z,59.81
2023-05-12T22:32:55.057Z,60.34
2023-05-12T22:35:24.354Z,60.38
2023-05-12T22:37:53.560Z,60.84
2023-05-12T22:40:23.940Z,61.06
2023-05-12T22:42:52.472Z,60.63
2023-05-12T22:45:22.377Z,61.59
2023-05-12T22:47:51.289Z,61.56
2023-05-12T22:50:20.911Z,61.11
2023-05-12T22:52:53.029Z,61.55
2023-05-12T22:55:27.355Z,61.34
2023-05-12T22:57:55.723Z,62.18
2023-05-12T23:00:24.583Z,62.01
2023-05-12T23:02:53.516Z,62.49
2023-05-12T23:05:24.649Z,62.53
2023-05-12T23:07:53.151Z,62.54
2023-05-12T23:10:24.847Z,62.93
2023-05-12T23:12:53.784Z,63.31
2023-05-12T23:15:25.856Z,63.49
2023-05-12T23:17:54.323Z,63.38
2023-05-12T23:20:22.932Z,63.85
2023-05-12T23:22:51.866Z,64.36
2023-05-12T23:25:21.277Z,64.42
2023-05-12T23:27:51.550Z,64.71
2023-05-12T23:30:20.452Z,64.31
2023-05-12T23:32:50.675Z,64.57
2023-05-12T23:35:19.485Z,64.83
2023-05-12T23:37:47.876Z,64.95
2023-05-12T23:40:16.297Z,65.72
2023-05-12T23:42:44.573Z,65.96
2023-05-12T23:45:15.818Z,65.39
2023-05-12T23:47:44.582Z,65.46
2023-05-12T23:50:13.252Z,65.74
2023-05-12T23:52:41.640Z,66.10
2023-05-12T23:55:11.674Z,66.42
2023-05-12T23:57:40.108Z,66.03
